Terminal Aerodrome Forecast
Issued by NWS Wakefield, VA

Home | Current Version | Previous Version | Text Only | Print | Product List | Glossary On
Versions: 1 2 3 4 5 6 7 8 9 10 11 12 13 14 15 16 17 18 19 20
000
FTUS41 KAKQ 282339
TAFSBY
TAF
KSBY 282339Z 2900/2924 19004KT P6SM FEW040 BKN250
     FM290500 VRB04KT 4SM BR BKN045
     FM291000 13003KT 5SM BR BKN025
     FM291400 19007KT P6SM SCT035=

USA.gov is the U.S. government's official web portal to all federal, state and local government web resources and services.